createdAt,value
2023-03-29T00:34:36.103Z,53.28
2023-03-29T00:37:08.688Z,52.36
2023-03-29T00:39:37.596Z,52.64
2023-03-29T00:42:05.709Z,52.38
2023-03-29T00:45:00.149Z,52.26
2023-03-29T00:47:32.571Z,52.23
2023-03-29T00:50:06.164Z,52.18
2023-03-29T00:52:35.756Z,52.88
2023-03-29T00:55:07.853Z,53.15
2023-03-29T00:57:37.420Z,53.99
2023-03-29T01:00:10.442Z,54.04
2023-03-29T01:02:41.048Z,54.63
2023-03-29T01:05:13.260Z,54.21
2023-03-29T01:07:48.208Z,54.40
2023-03-29T01:10:21.696Z,54.40
2023-03-29T01:12:54.716Z,54.02
2023-03-29T01:15:26.609Z,53.48
2023-03-29T01:17:58.048Z,53.56
2023-03-29T01:20:38.953Z,53.76
2023-03-29T01:23:27.381Z,54.43
2023-03-29T01:26:03.122Z,54.55
2023-03-29T01:28:37.050Z,54.42
2023-03-29T01:31:09.537Z,54.57
2023-03-29T01:33:41.890Z,54.45
2023-03-29T01:36:19.296Z,55.63
2023-03-29T01:38:54.581Z,55.17
2023-03-29T01:41:23.719Z,55.44
2023-03-29T01:44:00.115Z,55.05
2023-03-29T01:46:34.678Z,55.17
2023-03-29T01:49:11.240Z,55.85
2023-03-29T01:51:43.640Z,56.02
2023-03-29T01:54:17.602Z,55.68
2023-03-29T01:56:49.173Z,56.09
2023-03-29T01:59:23.321Z,55.74
2023-03-29T02:01:54.666Z,56.04
2023-03-29T02:04:26.620Z,56.52
2023-03-29T02:06:56.694Z,55.24
2023-03-29T02:09:25.136Z,55.84
2023-03-29T02:11:54.470Z,56.02
2023-03-29T02:14:24.809Z,55.10
2023-03-29T02:16:52.783Z,55.26
2023-03-29T02:19:21.829Z,54.63
2023-03-29T02:21:56.971Z,55.36
2023-03-29T02:24:26.361Z,54.65
2023-03-29T02:26:54.463Z,55.47
2023-03-29T02:29:23.863Z,55.62
2023-03-29T02:31:56.434Z,56.64
2023-03-29T02:34:30.046Z,57.42
2023-03-29T02:37:01.943Z,57.63
2023-03-29T02:39:31.822Z,57.20
2023-03-29T02:42:00.696Z,58.30
2023-03-29T02:44:32.853Z,58.02
2023-03-29T02:47:08.364Z,57.27
2023-03-29T02:49:36.480Z,57.06
2023-03-29T02:52:10.475Z,56.65
2023-03-29T02:54:43.559Z,56.03
2023-03-29T02:57:12.422Z,56.30
2023-03-29T02:59:44.065Z,55.78
2023-03-29T03:02:13.757Z,55.34
2023-03-29T03:04:41.809Z,54.75
2023-03-29T03:07:09.802Z,55.06
2023-03-29T03:09:37.809Z,55.30
2023-03-29T03:12:06.368Z,55.42
2023-03-29T03:14:34.497Z,54.96
2023-03-29T03:17:04.868Z,55.15
2023-03-29T03:19:33.133Z,54.74
2023-03-29T03:22:01.115Z,54.85
2023-03-29T03:24:29.217Z,54.45
2023-03-29T03:26:58.125Z,54.62
2023-03-29T03:29:26.275Z,54.33
2023-03-29T03:31:54.469Z,53.86
2023-03-29T03:34:24.171Z,54.30
2023-03-29T03:36:52.111Z,53.56
2023-03-29T03:39:20.112Z,53.47
2023-03-29T03:41:48.063Z,54.04
2023-03-29T03:44:16.026Z,54.32
2023-03-29T03:46:44.040Z,53.66
2023-03-29T03:49:12.193Z,53.80
2023-03-29T03:51:42.373Z,54.20
2023-03-29T03:54:10.304Z,53.61
2023-03-29T03:56:38.276Z,54.19
2023-03-29T03:59:07.144Z,54.26
2023-03-29T04:01:37.878Z,54.40
2023-03-29T04:04:06.345Z,54.50
2023-03-29T04:06:34.364Z,54.47
2023-03-29T04:09:04.304Z,53.61
2023-03-29T04:11:32.331Z,53.13
2023-03-29T04:14:00.469Z,53.35
2023-03-29T04:16:29.015Z,52.88
2023-03-29T04:18:57.471Z,53.47
2023-03-29T04:21:25.606Z,53.34
2023-03-29T04:23:53.583Z,53.25
2023-03-29T04:26:23.061Z,53.91
2023-03-29T04:28:51.008Z,53.44
2023-03-29T04:31:18.995Z,54.08
2023-03-29T04:33:47.677Z,54.17
2023-03-29T04:36:16.151Z,55.13
2023-03-29T04:38:47.354Z,54.69
2023-03-29T04:41:15.895Z,54.37
2023-03-29T04:43:46.466Z,54.79
2023-03-29T04:46:14.992Z,54.25
2023-03-29T04:48:43.670Z,54.38
2023-03-29T04:51:11.637Z,53.92
2023-03-29T04:53:39.646Z,53.92
2023-03-29T04:56:08.516Z,53.07
2023-03-29T04:58:36.416Z,53.65
2023-03-29T05:01:06.274Z,54.29
2023-03-29T05:03:34.452Z,53.73
2023-03-29T05:06:07.245Z,53.90
2023-03-29T05:08:39.127Z,54.71
2023-03-29T05:11:08.444Z,54.15
2023-03-29T05:13:36.902Z,55.16
2023-03-29T05:16:07.969Z,54.16
2023-03-29T05:18:36.020Z,54.39
2023-03-29T05:21:04.336Z,53.78
2023-03-29T05:23:32.676Z,54.15
2023-03-29T05:26:00.832Z,54.53
2023-03-29T05:28:28.837Z,54.60
2023-03-29T05:31:05.784Z,55.30
2023-03-29T05:33:36.571Z,55.20
2023-03-29T05:36:06.506Z,54.97
2023-03-29T05:38:34.689Z,54.86
2023-03-29T05:41:03.074Z,55.52
2023-03-29T05:43:31.632Z,54.93
2023-03-29T05:45:59.892Z,55.55
2023-03-29T05:48:28.792Z,55.61
2023-03-29T05:50:59.084Z,55.23
2023-03-29T05:53:28.713Z,55.81
2023-03-29T05:55:57.234Z,56.27
2023-03-29T05:58:26.781Z,56.29
2023-03-29T06:00:55.155Z,56.58
2023-03-29T06:03:27.706Z,55.71
2023-03-29T06:06:02.505Z,56.04
2023-03-29T06:08:31.739Z,55.71
2023-03-29T06:11:04.444Z,55.85
2023-03-29T06:13:34.647Z,55.01
2023-03-29T06:16:04.333Z,55.29
2023-03-29T06:18:32.623Z,54.50
2023-03-29T06:21:03.545Z,54.59
2023-03-29T06:23:32.257Z,54.43
2023-03-29T06:26:00.775Z,54.37
2023-03-29T06:28:28.914Z,53.19
2023-03-29T06:31:02.840Z,52.93
2023-03-29T06:33:32.480Z,53.14
2023-03-29T06:36:01.901Z,52.81
2023-03-29T06:38:30.915Z,52.55
2023-03-29T06:41:04.004Z,52.24
2023-03-29T06:43:33.492Z,52.52
2023-03-29T06:46:02.735Z,51.22
2023-03-29T06:48:30.801Z,52.23
2023-03-29T06:50:58.815Z,51.29
2023-03-29T06:53:28.181Z,51.24
2023-03-29T06:55:56.444Z,50.86
2023-03-29T06:58:24.381Z,50.78
2023-03-29T07:00:53.985Z,50.50
2023-03-29T07:03:23.649Z,50.40
2023-03-29T07:05:56.825Z,50.31
2023-03-29T07:08:31.312Z,49.96
2023-03-29T07:11:01.478Z,48.87
2023-03-29T07:13:30.558Z,47.61
2023-03-29T07:15:58.628Z,47.33
2023-03-29T07:18:26.817Z,45.56
2023-03-29T07:20:54.763Z,44.76
2023-03-29T07:23:22.824Z,44.88
2023-03-29T07:25:51.295Z,43.05
2023-03-29T07:28:20.578Z,43.19
2023-03-29T07:30:49.680Z,43.34
2023-03-29T07:33:17.838Z,41.59
2023-03-29T07:35:48.159Z,42.49
2023-03-29T07:38:16.573Z,41.24
2023-03-29T07:40:44.545Z,40.26
2023-03-29T07:43:12.480Z,40.24
2023-03-29T07:45:42.357Z,40.35
2023-03-29T07:48:10.506Z,39.80
2023-03-29T07:50:38.641Z,39.46
2023-03-29T07:53:06.604Z,37.94
2023-03-29T07:55:34.555Z,38.58
2023-03-29T07:58:03.814Z,38.32
2023-03-29T08:00:33.118Z,37.24
2023-03-29T08:03:03.845Z,38.39
2023-03-29T08:05:40.899Z,38.72
2023-03-29T08:08:10.228Z,37.57
2023-03-29T08:10:39.525Z,38.29
2023-03-29T08:13:09.159Z,39.04
2023-03-29T08:15:39.423Z,38.83
2023-03-29T08:18:09.449Z,38.39
2023-03-29T08:20:37.746Z,38.85
2023-03-29T08:23:06.508Z,39.65
2023-03-29T08:25:35.231Z,40.19
2023-03-29T08:28:03.156Z,39.24
2023-03-29T08:30:31.254Z,40.09
2023-03-29T08:32:59.245Z,39.80
2023-03-29T08:35:28.703Z,39.39
2023-03-29T08:37:56.902Z,39.07
2023-03-29T08:40:27.565Z,38.71
2023-03-29T08:43:15.281Z,37.89
2023-03-29T08:45:51.289Z,37.57
2023-03-29T08:48:26.949Z,37.25
2023-03-29T08:51:02.730Z,37.23
2023-03-29T08:53:35.052Z,36.96
2023-03-29T08:56:08.715Z,36.15
2023-03-29T08:58:38.969Z,36.21
2023-03-29T09:01:11.422Z,35.94
2023-03-29T09:03:44.655Z,35.28
2023-03-29T09:06:14.428Z,34.63
2023-03-29T09:08:45.031Z,35.38
2023-03-29T09:11:29.147Z,34.83
2023-03-29T09:14:12.298Z,35.42
2023-03-29T09:16:50.471Z,34.31
2023-03-29T09:19:27.751Z,33.90
2023-03-29T09:22:04.302Z,34.56
2023-03-29T09:24:43.722Z,34.62
2023-03-29T10:24:01.580Z,28.48
2023-03-29T10:26:32.950Z,29.61
2023-03-29T10:29:04.194Z,29.31
2023-03-29T10:31:33.254Z,30.16
2023-03-29T10:34:06.319Z,29.04
2023-03-29T10:36:34.467Z,29.14
2023-03-29T10:39:06.483Z,28.36
2023-03-29T10:41:36.556Z,28.45
2023-03-29T10:44:05.141Z,26.93
2023-03-29T10:46:36.627Z,28.72
2023-03-29T10:49:10.308Z,28.41
2023-03-29T10:51:38.526Z,27.17
2023-03-29T10:54:14.808Z,27.72
2023-03-29T10:56:46.080Z,28.18
2023-03-29T10:59:25.588Z,25.09
2023-03-29T11:02:06.166Z,25.67
2023-03-29T11:04:43.849Z,25.53
2023-03-29T11:07:32.125Z,23.88
2023-03-29T11:10:15.850Z,25.08
2023-03-29T11:12:50.750Z,23.90
2023-03-29T11:15:33.625Z,23.47
2023-03-29T11:18:16.220Z,24.22
2023-03-29T11:20:51.689Z,22.90
2023-03-29T11:23:35.930Z,22.91
2023-03-29T11:26:12.957Z,21.57
2023-03-29T11:28:49.812Z,21.23
2023-03-29T11:31:30.063Z,20.99
2023-03-29T11:34:12.364Z,20.19
2023-03-29T11:36:50.496Z,19.79
2023-03-29T11:39:28.314Z,19.86
2023-03-29T11:42:04.928Z,20.28
2023-03-29T11:44:33.412Z,19.48
2023-03-29T11:47:05.045Z,19.39
2023-03-29T11:49:38.411Z,19.71
2023-03-29T11:52:14.086Z,19.50
2023-03-29T11:54:47.244Z,19.17
2023-03-29T11:57:23.295Z,19.14
2023-03-29T11:59:58.149Z,18.68
2023-03-29T12:02:33.817Z,17.64
2023-03-29T12:05:07.560Z,17.71
2023-03-29T12:07:41.160Z,17.40
2023-03-29T12:10:17.958Z,17.89
2023-03-29T12:12:54.105Z,17.65
2023-03-29T12:15:25.114Z,18.71
2023-03-29T12:18:08.602Z,19.37
2023-03-29T12:20:39.838Z,19.34
2023-03-29T12:23:09.057Z,18.10
2023-03-29T12:25:46.757Z,18.41
2023-03-29T12:28:28.537Z,18.05
2023-03-29T12:31:07.232Z,18.33
2023-03-29T12:33:54.087Z,18.86
2023-03-29T12:36:41.703Z,19.23
2023-03-29T12:39:15.417Z,18.72
2023-03-29T12:41:48.831Z,18.89
2023-03-29T12:44:21.545Z,19.12
2023-03-29T12:46:53.252Z,18.75
2023-03-29T12:49:28.380Z,19.31
2023-03-29T12:51:58.790Z,18.84
2023-03-29T12:54:29.491Z,19.24
2023-03-29T12:57:01.165Z,19.17
2023-03-29T12:59:39.812Z,18.98
2023-03-29T13:02:28.461Z,18.88
2023-03-29T13:05:00.375Z,18.44
2023-03-29T13:07:44.638Z,17.84
2023-03-29T13:10:31.490Z,17.44
2023-03-29T13:13:12.653Z,18.09
2023-03-29T13:15:44.243Z,18.62
2023-03-29T13:18:24.421Z,18.60
2023-03-29T13:21:01.884Z,17.73
2023-03-29T13:23:43.411Z,18.24
2023-03-29T13:26:23.814Z,19.00
2023-03-29T13:29:07.369Z,18.91
2023-03-29T13:31:44.332Z,18.57
2023-03-29T13:34:28.138Z,19.49
2023-03-29T13:37:08.895Z,19.00
2023-03-29T13:39:37.856Z,19.44
2023-03-29T13:42:21.695Z,19.95
2023-03-29T13:44:50.393Z,19.41
2023-03-29T13:47:48.978Z,19.33
2023-03-29T13:50:36.021Z,19.46
2023-03-29T13:53:11.955Z,18.99
2023-03-29T13:55:47.372Z,19.42
2023-03-29T13:58:21.321Z,20.01
2023-03-29T14:00:55.218Z,19.93
2023-03-29T14:03:30.043Z,19.63
2023-03-29T14:06:01.923Z,18.95
2023-03-29T14:08:34.712Z,19.77
2023-03-29T14:11:06.881Z,19.49
2023-03-29T14:13:36.462Z,18.76
2023-03-29T14:16:09.165Z,19.31
2023-03-29T14:18:42.172Z,19.80
2023-03-29T14:21:13.553Z,20.08
2023-03-29T14:23:45.218Z,20.71
2023-03-29T14:26:18.809Z,20.38
2023-03-29T14:28:50.089Z,19.95
2023-03-29T14:31:22.504Z,19.61
2023-03-29T14:33:55.721Z,20.25
2023-03-29T14:36:25.213Z,20.37
2023-03-29T14:38:58.112Z,20.55
2023-03-29T14:41:30.963Z,20.94
2023-03-29T14:43:59.874Z,20.28
2023-03-29T14:46:28.623Z,20.77
2023-03-29T14:48:58.901Z,20.71
2023-03-29T14:51:30.539Z,20.13
2023-03-29T14:54:00.161Z,20.33
2023-03-29T14:56:28.830Z,19.86
2023-03-29T14:58:57.830Z,20.14
2023-03-29T15:01:27.960Z,19.99
2023-03-29T15:03:58.957Z,19.96
2023-03-29T15:06:29.614Z,20.52
2023-03-29T15:09:06.193Z,20.70
2023-03-29T15:11:35.271Z,20.16
2023-03-29T15:14:05.878Z,19.90
2023-03-29T15:16:34.602Z,19.29
2023-03-29T15:19:04.599Z,19.02
2023-03-29T15:21:35.684Z,20.19
2023-03-29T15:24:05.320Z,20.01
2023-03-29T15:26:35.830Z,19.47
2023-03-29T15:29:08.711Z,19.23
2023-03-29T15:31:38.535Z,19.60
2023-03-29T15:34:09.772Z,19.72
2023-03-29T15:36:42.504Z,19.02
2023-03-29T15:39:13.274Z,19.13
2023-03-29T15:41:41.510Z,19.36
2023-03-29T15:44:09.893Z,18.92
2023-03-29T15:46:38.262Z,20.00
2023-03-29T15:49:11.993Z,18.99
2023-03-29T15:51:40.511Z,18.59
2023-03-29T15:54:09.298Z,19.14
2023-03-29T15:56:46.406Z,19.39
2023-03-29T15:59:14.504Z,19.44
2023-03-29T16:01:42.757Z,19.70
2023-03-29T16:04:14.556Z,19.28
2023-03-29T16:06:43.209Z,19.11
2023-03-29T16:09:12.044Z,18.94
2023-03-29T16:11:40.925Z,18.25
2023-03-29T16:14:17.875Z,18.32
2023-03-29T16:16:45.913Z,18.02
2023-03-29T16:19:15.561Z,18.38
2023-03-29T16:21:45.007Z,18.94
2023-03-29T16:24:16.102Z,18.92
2023-03-29T16:26:44.525Z,18.88
2023-03-29T16:29:12.867Z,19.44
2023-03-29T16:31:41.416Z,19.73
2023-03-29T16:34:13.894Z,19.76
2023-03-29T16:36:44.231Z,19.90
2023-03-29T16:39:13.499Z,20.48
2023-03-29T16:41:42.560Z,19.42
2023-03-29T16:44:15.246Z,20.42
2023-03-29T16:46:43.213Z,20.67
2023-03-29T16:49:18.311Z,21.05
2023-03-29T16:51:49.592Z,21.52
2023-03-29T16:54:18.980Z,21.16
2023-03-29T16:56:47.174Z,21.33
2023-03-29T16:59:15.459Z,22.42
2023-03-29T17:01:43.627Z,22.82
2023-03-29T17:04:11.649Z,22.79
2023-03-29T17:06:39.625Z,23.09
2023-03-29T17:09:09.765Z,22.87
2023-03-29T17:11:37.828Z,23.08
2023-03-29T17:14:05.868Z,23.24
2023-03-29T17:16:33.929Z,23.65
2023-03-29T17:19:01.905Z,23.22
2023-03-29T17:21:30.046Z,23.70
2023-03-29T17:23:58.077Z,24.00
2023-03-29T17:26:27.478Z,24.50
2023-03-29T17:28:55.428Z,24.59
2023-03-29T17:31:23.553Z,25.47
2023-03-29T17:33:52.417Z,26.14
2023-03-29T17:36:24.135Z,27.02
2023-03-29T17:38:52.718Z,27.90
2023-03-29T17:41:21.291Z,28.62
2023-03-29T17:43:51.028Z,29.22
2023-03-29T17:46:22.937Z,29.38
2023-03-29T17:48:52.268Z,29.80
2023-03-29T17:51:20.814Z,29.72
2023-03-29T17:53:48.916Z,29.54
2023-03-29T17:56:17.126Z,29.81
2023-03-29T17:58:45.157Z,31.42
2023-03-29T18:01:15.104Z,32.19
2023-03-29T18:03:43.492Z,33.33
2023-03-29T18:06:30.861Z,32.77
2023-03-29T18:09:01.379Z,32.84
2023-03-29T18:11:29.759Z,33.64
2023-03-29T18:14:00.679Z,33.46
2023-03-29T18:16:30.257Z,33.96
2023-03-29T18:18:58.276Z,34.19
